Huvudsida
METAR-TAF:

METAR-TAF

Flygplatser :

Uppsala-Ärna flygplats

Uppsala, Sverige

latitud: 59-53N, longitud: 017-36E, höjd: 21 m

Aktuellt väderrapport

Denna rapport gjordes för 25 minuter sedan, klockan 21:50 UTC
Vind 8 kt från väst/sydväst
Temperatur 5°C
Fuktighet 87%
Tryck 1006 hPa
Sikt 10 km eller mer

METAR: ESCM 262150Z AUTO 24008KT 9999 OVC033/// 05/03 Q1006

Tid: 23:15 (22:15 UTC)


TAF: saknas

Aktuella väderrapporter och prognoser från 4000 flygplatser (METAR- och TAF-rapporter).

De tillgängliga stationerna syns som gula och röda prickar på kartan.

För musen över prickarna för att se namnen på stationerna.

Klicka sedan för att få väderrapporter och prognoser.

För att ändra kartan: Klicka på de gröna knapparna med ett svart kors på för att zooma in; den gröna knappen med ett streck på för att zooma ut; eller på de gröna pilarna för angränsande kartor.


METAR-TAF: